Time;durP1;ratioP1;P1;durP2;ratioP2;P2;SDS_P1;SDS_P2;PMS_P1;PMS_P2;Temp;Humidity;BMP_temperature;BMP_pressure;BME280_temperature;BME280_humidity;BME280_pressure;Samples;Min_cycle;Max_cycle;Signal;HPM_P1;HPM_P2
2023/01/05 00:01:25;;;;;;;5.33;2.50;;;9.40;1.00;;;;;;6249106;22;20760;-80
2023/01/05 00:03:53;;;;;;;8.87;2.10;;;9.30;1.00;;;;;;6249464;23;20414;-80
2023/01/05 00:06:20;;;;;;;3.80;2.60;;;9.40;1.00;;;;;;6250668;23;20438;-82
2023/01/05 00:08:47;;;;;;;7.03;2.10;;;9.40;1.00;;;;;;6251465;23;20773;-81
2023/01/05 00:22:33;;;;;;;6.20;2.30;;;9.50;1.00;;;;;;6202490;23;20853;-81
2023/01/05 00:25:01;;;;;;;4.60;2.30;;;9.50;1.00;;;;;;6252698;23;20451;-81
2023/01/05 00:27:28;;;;;;;5.17;2.03;;;9.40;1.00;;;;;;6255480;23;20404;-81
2023/01/05 00:29:55;;;;;;;9.80;1.87;;;9.40;1.00;;;;;;6253681;23;20433;-82
2023/01/05 00:32:22;;;;;;;7.27;2.00;;;9.40;1.00;;;;;;6252949;22;20419;-81
2023/01/05 00:34:53;;;;;;;4.30;1.97;;;9.40;1.00;;;;;;6252659;23;20949;-80
2023/01/05 00:37:20;;;;;;;4.67;2.20;;;9.80;1.00;;;;;;6249846;23;20412;-80
2023/01/05 00:39:47;;;;;;;17.03;2.77;;;9.50;1.00;;;;;;6250623;23;20412;-80
2023/01/05 00:42:13;;;;;;;8.30;2.10;;;9.50;1.00;;;;;;6248827;22;20508;-79
2023/01/05 00:44:40;;;;;;;3.97;1.80;;;9.60;1.00;;;;;;6249272;23;20500;-80
2023/01/05 00:47:07;;;;;;;5.10;3.00;;;9.60;1.00;;;;;;6248735;23;20409;-80
2023/01/05 00:49:34;;;;;;;6.10;2.73;;;9.60;1.00;;;;;;6248233;23;20413;-81
2023/01/05 00:52:02;;;;;;;1.90;1.70;;;9.60;1.00;;;;;;6248440;22;20411;-79
2023/01/05 00:54:29;;;;;;;4.50;1.90;;;9.50;1.00;;;;;;6248926;23;20463;-79
2023/01/05 00:56:56;;;;;;;7.13;3.10;;;9.60;1.00;;;;;;6248595;23;20416;-80
2023/01/05 00:59:23;;;;;;;2.93;1.70;;;10.20;1.00;;;;;;6248384;23;20520;-80
2023/01/05 01:01:51;;;;;;;6.60;1.97;;;9.60;99.90;;;;;;6253053;22;20841;-80
2023/01/05 01:04:18;;;;;;;14.50;5.13;;;9.60;99.90;;;;;;6257442;23;20902;-80
2023/01/05 01:06:46;;;;;;;6.50;2.30;;;9.60;99.90;;;;;;6257133;23;20465;-80
2023/01/05 01:09:14;;;;;;;7.70;2.50;;;9.60;99.90;;;;;;6256880;23;20425;-80
2023/01/05 01:11:41;;;;;;;9.00;2.57;;;9.60;99.90;;;;;;6251345;22;20457;-80
2023/01/05 01:14:10;;;;;;;7.77;2.87;;;9.60;99.90;;;;;;6248367;23;20497;-80
2023/01/05 01:16:37;;;;;;;8.20;2.30;;;9.60;99.90;;;;;;6248270;23;20418;-81
2023/01/05 01:19:04;;;;;;;2.90;2.17;;;9.60;99.90;;;;;;6248624;23;20452;-80
2023/01/05 01:21:31;;;;;;;4.47;1.90;;;9.60;99.90;;;;;;6248112;22;20949;-79
2023/01/05 01:23:57;;;;;;;6.83;2.17;;;9.60;99.90;;;;;;6248120;23;20487;-80
2023/01/05 01:26:26;;;;;;;11.53;3.20;;;9.70;99.90;;;;;;6252234;23;20463;-80
2023/01/05 01:28:52;;;;;;;5.97;2.87;;;9.60;99.90;;;;;;6262824;23;20474;-80
2023/01/05 01:31:19;;;;;;;5.60;2.20;;;9.70;99.90;;;;;;6262016;22;20430;-79
2023/01/05 01:33:46;;;;;;;6.87;2.10;;;9.40;99.90;;;;;;6253564;23;20422;-80
2023/01/05 01:36:13;;;;;;;11.37;4.20;;;9.60;99.90;;;;;;6249013;23;20493;-80
2023/01/05 01:38:40;;;;;;;5.27;2.70;;;9.70;99.90;;;;;;6248055;23;20437;-80
2023/01/05 01:41:06;;;;;;;8.63;2.80;;;9.70;99.90;;;;;;6247301;22;20971;-79
2023/01/05 01:43:46;;;;;;;9.97;2.90;;;9.70;99.90;;;;;;6249272;23;20409;-79
2023/01/05 01:46:15;;;;;;;7.77;1.77;;;9.60;99.90;;;;;;6255322;23;20461;-80
2023/01/05 01:48:46;;;;;;;9.20;2.67;;;9.60;99.90;;;;;;6253111;23;20509;-81
2023/01/05 01:51:17;;;;;;;7.03;2.33;;;9.50;99.90;;;;;;6248028;22;20460;-80
2023/01/05 01:53:47;;;;;;;8.37;2.57;;;9.40;99.90;;;;;;6247591;23;20877;-81
2023/01/05 01:56:18;;;;;;;6.17;2.67;;;9.60;99.90;;;;;;6247809;23;20496;-80
2023/01/05 01:58:46;;;;;;;4.87;1.90;;;9.60;99.90;;;;;;6250070;23;20514;-80
2023/01/05 02:01:14;;;;;;;3.90;1.67;;;9.60;99.90;;;;;;6251856;22;20426;-80
2023/01/05 02:03:41;;;;;;;2.23;1.80;;;9.60;99.90;;;;;;6251547;23;20445;-80
2023/01/05 02:06:08;;;;;;;7.33;3.83;;;9.70;99.90;;;;;;6248682;23;20413;-79
2023/01/05 02:08:35;;;;;;;10.47;1.90;;;9.70;99.90;;;;;;6252433;23;20432;-80
2023/01/05 02:11:33;;;;;;;10.57;2.30;;;9.70;99.90;;;;;;6266004;22;20429;-79
2023/01/05 02:14:21;;;;;;;6.77;2.70;;;9.90;99.90;;;;;;6266831;23;20421;-79
2023/01/05 02:16:59;;;;;;;4.67;2.17;;;9.70;99.90;;;;;;6268239;23;20376;-79
2023/01/05 02:20:00;;;;;;;7.90;2.43;;;9.90;99.90;;;;;;6268325;23;20449;-80
2023/01/05 02:22:49;;;;;;;4.50;2.00;;;9.80;99.90;;;;;;6234576;22;20429;-79
2023/01/05 02:25:42;;;;;;;7.00;1.87;;;9.80;99.90;;;;;;6248421;23;20388;-80
2023/01/05 02:28:23;;;;;;;5.13;2.40;;;9.80;99.90;;;;;;6247728;23;20394;-80
2023/01/05 02:31:12;;;;;;;6.93;2.03;;;9.60;99.90;;;;;;6247536;22;20492;-80
2023/01/05 02:34:09;;;;;;;6.57;2.10;;;9.70;98.10;;;;;;6250158;23;20421;-80
2023/01/05 02:36:42;;;;;;;13.00;2.60;;;9.60;99.90;;;;;;6219052;23;20420;-80
2023/01/05 02:39:15;;;;;;;5.57;2.67;;;9.70;99.90;;;;;;6261279;23;20432;-80
2023/01/05 02:41:48;;;;;;;3.40;3.07;;;9.90;99.90;;;;;;6257709;22;20484;-80
2023/01/05 02:44:17;;;;;;;3.70;2.40;;;9.60;98.60;;;;;;6251025;23;20392;-80
2023/01/05 02:46:45;;;;;;;8.00;2.20;;;9.60;99.90;;;;;;6250336;23;20401;-79
2023/01/05 02:49:14;;;;;;;6.67;2.10;;;9.60;72.00;;;;;;6260852;23;20428;-79
2023/01/05 02:51:46;;;;;;;6.40;2.83;;;9.60;72.90;;;;;;6269146;22;20449;-80
2023/01/05 02:54:21;;;;;;;9.67;2.40;;;9.60;77.80;;;;;;6272431;23;20389;-80
2023/01/05 02:56:52;;;;;;;4.37;2.47;;;10.10;99.90;;;;;;6264127;23;20449;-79
2023/01/05 02:59:24;;;;;;;4.40;2.33;;;9.70;23.50;;;;;;6257265;23;20516;-79
2023/01/05 03:01:56;;;;;;;3.97;1.80;;;9.80;1.00;;;;;;6259987;22;20429;-79
2023/01/05 03:04:29;;;;;;;8.23;2.73;;;9.90;1.00;;;;;;6254493;23;20364;-79
2023/01/05 03:07:02;;;;;;;6.77;2.97;;;9.80;1.00;;;;;;6251624;23;20413;-80
2023/01/05 03:09:35;;;;;;;7.63;1.70;;;9.80;1.00;;;;;;6251086;23;20400;-80
2023/01/05 03:14:58;;;;;;;2.67;1.87;;;9.80;1.00;;;;;;6251782;23;20707;-80
2023/01/05 03:17:32;;;;;;;6.97;1.87;;;9.80;1.00;;;;;;6252054;23;20390;-79
2023/01/05 03:20:00;;;;;;;4.93;2.13;;;9.80;1.00;;;;;;6252735;23;20483;-79
2023/01/05 03:36:41;;;;;;;3.17;1.70;;;9.60;1.00;;;;;;6249247;23;20351;-79
2023/01/05 03:39:10;;;;;;;6.30;1.60;;;9.70;1.00;;;;;;6250185;23;20937;-80
2023/01/05 03:41:38;;;;;;;3.77;1.60;;;9.70;1.00;;;;;;6255592;22;20432;-79
2023/01/05 03:44:05;;;;;;;6.40;2.20;;;9.80;1.00;;;;;;6254561;23;20424;-80
2023/01/05 03:46:32;;;;;;;5.57;2.07;;;9.70;1.00;;;;;;6252359;23;20881;-80
2023/01/05 03:49:00;;;;;;;3.47;1.50;;;9.70;1.00;;;;;;6252092;23;20397;-80
2023/01/05 03:51:27;;;;;;;5.03;1.77;;;9.70;1.00;;;;;;6250477;22;20430;-80
2023/01/05 03:53:54;;;;;;;3.23;2.60;;;9.70;1.00;;;;;;6251889;23;20416;-80
2023/01/05 03:56:21;;;;;;;2.00;1.40;;;9.90;1.00;;;;;;6252008;23;20416;-80
2023/01/05 03:58:47;;;;;;;14.30;1.93;;;9.90;1.00;;;;;;6251434;23;20437;-80
2023/01/05 04:01:14;;;;;;;6.47;1.57;;;9.70;1.00;;;;;;6250764;22;20429;-80
2023/01/05 04:03:41;;;;;;;3.53;1.70;;;9.90;1.00;;;;;;6251388;23;20484;-80
2023/01/05 04:06:09;;;;;;;2.50;1.23;;;9.80;1.00;;;;;;6252987;23;20459;-80
2023/01/05 04:08:36;;;;;;;7.10;2.60;;;9.70;1.00;;;;;;6252027;23;20459;-79
2023/01/05 04:11:13;;;;;;;2.60;2.37;;;9.70;1.00;;;;;;6258481;22;20435;-80
2023/01/05 04:13:40;;;;;;;2.00;1.07;;;9.70;1.00;;;;;;6259047;23;20407;-82
2023/01/05 04:16:07;;;;;;;4.40;1.73;;;9.80;1.00;;;;;;6258228;23;20811;-79
2023/01/05 04:18:34;;;;;;;4.97;1.70;;;9.90;1.00;;;;;;6260044;23;20401;-80
2023/01/05 04:21:01;;;;;;;2.83;1.60;;;9.90;1.00;;;;;;6259566;22;20479;-79
2023/01/05 04:23:29;;;;;;;4.80;1.80;;;9.90;1.00;;;;;;6259305;23;20410;-80
2023/01/05 04:25:56;;;;;;;4.47;1.57;;;9.80;1.00;;;;;;6257439;23;20444;-79
2023/01/05 04:28:23;;;;;;;3.60;2.00;;;9.80;1.00;;;;;;6257208;23;20429;-79
2023/01/05 04:30:51;;;;;;;1.83;1.30;;;9.70;73.50;;;;;;6254215;22;20441;-79
2023/01/05 04:33:18;;;;;;;4.73;1.40;;;9.70;1.00;;;;;;6251652;23;20693;-80
2023/01/05 04:35:45;;;;;;;7.20;2.03;;;9.70;1.00;;;;;;6253799;23;20416;-79
2023/01/05 04:38:13;;;;;;;4.43;1.73;;;9.60;99.90;;;;;;6252308;23;20490;-79
2023/01/05 04:40:41;;;;;;;4.47;1.60;;;9.50;36.70;;;;;;6250489;22;20442;-78
2023/01/05 04:43:08;;;;;;;3.93;2.03;;;9.70;1.00;;;;;;6251005;23;20409;-78
2023/01/05 04:45:35;;;;;;;4.87;1.90;;;9.70;3.20;;;;;;6250548;23;20457;-79
2023/01/05 04:48:01;;;;;;;2.23;1.10;;;9.70;1.00;;;;;;6249801;23;20501;-80
2023/01/05 04:50:28;;;;;;;3.10;1.57;;;9.70;1.00;;;;;;6251203;23;20493;-80
2023/01/05 04:52:55;;;;;;;4.33;1.70;;;9.70;1.00;;;;;;6250057;22;20452;-80
2023/01/05 04:55:22;;;;;;;4.30;2.10;;;9.70;1.00;;;;;;6250470;23;20380;-80
2023/01/05 04:57:50;;;;;;;1.80;1.60;;;9.80;1.00;;;;;;6250646;23;20459;-80
2023/01/05 05:00:18;;;;;;;5.67;1.77;;;9.80;1.00;;;;;;6250827;23;20448;-80
2023/01/05 05:02:44;;;;;;;4.37;1.40;;;9.70;77.40;;;;;;6249842;22;20440;-80
2023/01/05 05:05:11;;;;;;;3.77;1.27;;;9.60;99.90;;;;;;6249806;23;20372;-80
2023/01/05 05:07:38;;;;;;;4.30;1.63;;;9.50;99.90;;;;;;6250090;23;20409;-80
2023/01/05 05:10:06;;;;;;;5.07;1.67;;;9.40;99.90;;;;;;6250044;23;20397;-79
2023/01/05 05:12:32;;;;;;;3.90;2.10;;;9.40;99.90;;;;;;6250518;22;20461;-79
2023/01/05 05:15:01;;;;;;;5.23;1.90;;;9.30;99.90;;;;;;6250319;23;20951;-80
2023/01/05 05:17:27;;;;;;;5.15;1.88;;;9.30;99.90;;;;;;6250684;23;20465;-79
2023/01/05 05:19:54;;;;;;;5.80;1.80;;;9.30;99.90;;;;;;6252445;23;20261;-79
2023/01/05 05:22:21;;;;;;;6.13;2.67;;;9.30;99.90;;;;;;6252306;22;20504;-79
2023/01/05 05:24:48;;;;;;;10.70;4.47;;;9.30;99.90;;;;;;6252131;23;20790;-80
2023/01/05 05:27:14;;;;;;;3.60;2.90;;;9.30;1.00;;;;;;6253298;23;20444;-79
2023/01/05 05:29:41;;;;;;;8.27;2.00;;;9.20;1.00;;;;;;6253126;23;20402;-79
2023/01/05 05:32:10;;;;;;;5.23;2.30;;;9.20;1.00;;;;;;6251099;22;20420;-79
2023/01/05 05:34:36;;;;;;;8.03;2.30;;;9.20;1.00;;;;;;6250506;23;20480;-81
2023/01/05 05:37:03;;;;;;;2.83;1.60;;;9.10;1.00;;;;;;6249714;23;20971;-79
2023/01/05 05:39:30;;;;;;;3.33;2.73;;;9.10;1.00;;;;;;6250568;23;20437;-80
2023/01/05 05:41:57;;;;;;;7.23;2.60;;;9.00;1.00;;;;;;6249888;22;20445;-79
2023/01/05 05:44:24;;;;;;;5.43;2.23;;;9.00;1.00;;;;;;6250525;23;20944;-79
2023/01/05 05:46:50;;;;;;;6.07;2.63;;;9.00;1.00;;;;;;6250596;23;20447;-79
2023/01/05 05:49:19;;;;;;;5.03;2.20;;;9.00;1.00;;;;;;6250075;23;20489;-81
2023/01/05 05:51:46;;;;;;;6.87;2.43;;;8.90;1.00;;;;;;6250451;22;20528;-80
2023/01/05 05:54:12;;;;;;;6.57;2.20;;;9.00;1.00;;;;;;6249735;23;20379;-79
2023/01/05 05:56:39;;;;;;;4.57;1.77;;;9.00;1.00;;;;;;6250178;23;20894;-79
2023/01/05 05:59:06;;;;;;;6.40;2.20;;;9.00;1.00;;;;;;6252190;23;20475;-80
2023/01/05 06:01:33;;;;;;;6.50;2.17;;;9.00;1.00;;;;;;6261600;22;20501;-79
2023/01/05 06:04:00;;;;;;;4.97;2.23;;;9.10;1.00;;;;;;6251284;23;20536;-80
2023/01/05 06:06:28;;;;;;;6.63;1.77;;;9.10;1.00;;;;;;6265467;23;20412;-80
2023/01/05 06:08:55;;;;;;;5.00;3.00;;;9.00;1.00;;;;;;6263644;23;21069;-79
2023/01/05 06:11:21;;;;;;;4.60;2.00;;;9.20;1.00;;;;;;6256845;22;20490;-79
2023/01/05 06:13:48;;;;;;;4.27;1.60;;;9.20;1.00;;;;;;6257208;23;20488;-80
2023/01/05 06:16:15;;;;;;;9.33;2.23;;;9.20;1.00;;;;;;6257195;23;20436;-79
2023/01/05 06:18:42;;;;;;;4.00;2.13;;;9.20;1.00;;;;;;6257674;23;20815;-80
2023/01/05 06:21:09;;;;;;;1.53;1.43;;;9.00;1.00;;;;;;6260447;22;20510;-80
2023/01/05 06:23:37;;;;;;;4.80;1.43;;;8.90;1.00;;;;;;6257148;23;20440;-79
2023/01/05 06:26:04;;;;;;;3.47;1.30;;;8.80;1.00;;;;;;6253128;23;20480;-79
2023/01/05 06:28:31;;;;;;;4.00;1.73;;;8.70;1.00;;;;;;6252615;23;20909;-79
2023/01/05 06:30:57;;;;;;;3.23;1.40;;;8.70;1.00;;;;;;6251568;22;20451;-79
2023/01/05 06:33:24;;;;;;;4.43;3.63;;;8.70;1.00;;;;;;6252116;23;20703;-80
2023/01/05 06:35:51;;;;;;;2.50;1.80;;;8.70;1.00;;;;;;6251666;23;20429;-79
2023/01/05 06:38:18;;;;;;;4.17;2.30;;;8.70;1.00;;;;;;6248857;23;20412;-80
2023/01/05 06:40:47;;;;;;;8.70;2.70;;;8.60;1.00;;;;;;6248801;22;20472;-78
2023/01/05 06:43:14;;;;;;;11.20;2.30;;;8.70;1.00;;;;;;6249798;23;20473;-80
2023/01/05 06:45:41;;;;;;;4.10;1.80;;;8.70;1.00;;;;;;6250688;23;20441;-80
2023/01/05 06:48:08;;;;;;;6.80;1.73;;;8.70;1.00;;;;;;6258867;23;20398;-80
2023/01/05 06:50:35;;;;;;;2.90;1.50;;;8.70;1.00;;;;;;6264016;23;20429;-81
2023/01/05 06:53:02;;;;;;;4.60;2.13;;;8.70;1.00;;;;;;6252734;23;20395;-80
2023/01/05 06:55:29;;;;;;;1.70;1.33;;;8.60;1.00;;;;;;6256347;23;20940;-82
2023/01/05 06:57:57;;;;;;;5.13;1.50;;;8.70;1.00;;;;;;6260711;23;20447;-79
2023/01/05 07:00:24;;;;;;;2.50;1.57;;;8.70;1.00;;;;;;6258061;23;20827;-80
2023/01/05 07:02:51;;;;;;;1.60;1.50;;;8.70;1.00;;;;;;6257015;22;20451;-80
2023/01/05 07:05:18;;;;;;;3.03;1.57;;;8.70;1.00;;;;;;6254596;23;20406;-81
2023/01/05 07:07:45;;;;;;;4.80;1.43;;;8.80;1.00;;;;;;6254252;23;20400;-81
2023/01/05 07:10:12;;;;;;;2.60;1.23;;;8.80;1.00;;;;;;6253516;23;20408;-80
2023/01/05 07:12:38;;;;;;;1.20;0.90;;;8.80;1.00;;;;;;6252041;22;20404;-80
2023/01/05 07:15:08;;;;;;;1.73;1.10;;;8.80;1.00;;;;;;6254381;23;20744;-81
2023/01/05 07:17:36;;;;;;;1.87;1.60;;;8.90;1.00;;;;;;6254467;23;20419;-81
2023/01/05 07:20:03;;;;;;;2.50;0.97;;;8.80;1.00;;;;;;6253074;23;20772;-81
2023/01/05 07:22:30;;;;;;;1.40;1.30;;;8.80;99.90;;;;;;6253282;22;20406;-81
2023/01/05 07:24:57;;;;;;;1.17;1.00;;;8.80;99.90;;;;;;6253118;23;20463;-81
2023/01/05 07:27:25;;;;;;;1.30;0.80;;;8.80;99.90;;;;;;6252690;23;20447;-81
2023/01/05 07:29:51;;;;;;;0.90;0.90;;;8.80;99.90;;;;;;6253119;23;20572;-81
2023/01/05 07:32:20;;;;;;;2.30;1.27;;;8.90;99.90;;;;;;6248149;22;20433;-79
2023/01/05 07:34:46;;;;;;;2.10;1.00;;;8.90;99.90;;;;;;6249297;23;20413;-78
2023/01/05 07:37:13;;;;;;;1.67;1.57;;;8.90;99.90;;;;;;6248808;23;20496;-78
2023/01/05 07:39:40;;;;;;;1.03;0.80;;;9.40;99.90;;;;;;6249531;23;20473;-78
2023/01/05 07:42:07;;;;;;;1.10;1.00;;;8.90;99.90;;;;;;6249380;22;20450;-79
2023/01/05 07:44:34;;;;;;;2.03;1.00;;;8.90;99.90;;;;;;6248459;23;20899;-78
2023/01/05 07:47:01;;;;;;;0.90;0.90;;;8.80;99.90;;;;;;6250823;23;20403;-79
2023/01/05 07:49:29;;;;;;;0.93;0.93;;;8.80;99.90;;;;;;6250958;23;20402;-79
2023/01/05 07:51:56;;;;;;;2.20;1.27;;;8.80;99.90;;;;;;6253392;22;20425;-78
2023/01/05 07:54:23;;;;;;;1.00;0.90;;;8.80;99.90;;;;;;6253452;23;20402;-79
2023/01/05 07:56:49;;;;;;;1.90;1.00;;;8.80;99.90;;;;;;6249868;23;20484;-78
2023/01/05 07:59:16;;;;;;;7.43;1.20;;;8.80;99.90;;;;;;6248427;23;20411;-78
2023/01/05 08:01:43;;;;;;;1.27;0.90;;;8.80;99.90;;;;;;6252133;22;20443;-80
2023/01/05 08:04:10;;;;;;;1.07;0.80;;;8.80;94.80;;;;;;6249716;23;20412;-78
2023/01/05 08:06:39;;;;;;;0.97;0.83;;;8.80;44.90;;;;;;6249343;23;20409;-78
2023/01/05 08:11:46;;;;;;;1.10;1.00;;;8.80;1.00;;;;;;6248817;22;20413;-78
2023/01/05 08:14:13;;;;;;;1.23;0.87;;;8.80;1.00;;;;;;6254598;23;20396;-78
2023/01/05 08:16:41;;;;;;;0.80;0.70;;;8.70;1.00;;;;;;6274108;22;20452;-76
2023/01/05 08:19:09;;;;;;;0.70;0.70;;;8.80;1.00;;;;;;6275611;22;20394;-77
2023/01/05 08:21:36;;;;;;;1.10;0.83;;;8.80;1.00;;;;;;6269451;22;20477;-77
2023/01/05 08:24:04;;;;;;;2.10;0.90;;;8.90;1.00;;;;;;6249982;23;20463;-78
2023/01/05 08:26:31;;;;;;;0.80;0.80;;;9.00;1.00;;;;;;6248082;23;20380;-78
2023/01/05 08:28:59;;;;;;;0.87;0.80;;;8.90;1.00;;;;;;6249739;23;21016;-78
2023/01/05 08:31:27;;;;;;;1.53;0.77;;;9.00;1.00;;;;;;6252943;22;20456;-78
2023/01/05 08:33:56;;;;;;;1.67;0.90;;;9.00;1.00;;;;;;6278447;22;20554;-82
2023/01/05 08:36:24;;;;;;;2.13;1.10;;;9.00;1.00;;;;;;6291422;22;20401;-83
2023/01/05 08:38:52;;;;;;;1.10;1.10;;;9.00;1.00;;;;;;6290111;22;20438;-81
2023/01/05 08:41:24;;;;;;;1.10;0.90;;;9.10;1.00;;;;;;6290517;22;20415;-80
2023/01/05 08:47:11;;;;;;;2.30;1.10;;;;;;;;;;6266847;23;20461;-80
2023/01/05 08:49:38;;;;;;;1.37;0.70;;;9.20;1.00;;;;;;6263953;23;20396;-80
2023/01/05 08:52:06;;;;;;;0.70;0.70;;;8.90;1.00;;;;;;6261492;22;20393;-83
2023/01/05 08:54:33;;;;;;;1.60;0.80;;;9.20;1.00;;;;;;6263949;23;20402;-81
2023/01/05 08:57:01;;;;;;;1.43;0.70;;;9.20;99.90;;;;;;6270940;22;20402;-81
2023/01/05 08:59:28;;;;;;;1.53;1.20;;;9.30;1.00;;;;;;6270760;22;20413;-81
2023/01/05 09:01:55;;;;;;;0.80;0.80;;;9.30;1.00;;;;;;6265345;22;20461;-79
2023/01/05 09:04:22;;;;;;;0.90;0.90;;;9.40;1.00;;;;;;6261553;23;20386;-81
2023/01/05 09:06:49;;;;;;;1.70;1.00;;;9.40;99.90;;;;;;6260257;23;20413;-81
2023/01/05 09:09:15;;;;;;;2.60;0.90;;;9.50;99.90;;;;;;6261508;23;20424;-81
2023/01/05 09:11:42;;;;;;;1.43;0.80;;;9.50;99.90;;;;;;6262346;23;20424;-81
2023/01/05 09:14:14;;;;;;;1.10;1.00;;;9.50;99.90;;;;;;6260972;22;20400;-81
2023/01/05 09:16:41;;;;;;;2.50;1.00;;;9.60;99.90;;;;;;6260532;23;20746;-81
2023/01/05 09:19:09;;;;;;;2.23;1.00;;;9.60;1.00;;;;;;6263472;23;20477;-80
2023/01/05 09:21:38;;;;;;;2.47;1.17;;;9.70;1.00;;;;;;6267347;23;20437;-79
2023/01/05 09:24:06;;;;;;;1.00;1.00;;;9.60;1.00;;;;;;6268500;22;20425;-80
2023/01/05 09:26:33;;;;;;;1.53;1.20;;;9.70;1.00;;;;;;6270226;23;20390;-80
2023/01/05 09:29:00;;;;;;;1.37;1.17;;;9.70;1.00;;;;;;6269821;23;20401;-80
2023/01/05 09:31:28;;;;;;;1.60;1.30;;;9.60;1.00;;;;;;6267100;23;20397;-79
2023/01/05 09:33:56;;;;;;;2.07;1.20;;;9.60;1.00;;;;;;6265882;22;20437;-80
2023/01/05 09:36:24;;;;;;;1.67;1.00;;;9.60;1.00;;;;;;6268426;23;20404;-83
2023/01/05 09:38:52;;;;;;;3.67;1.30;;;9.60;1.00;;;;;;6266210;23;20469;-80
2023/01/05 09:41:22;;;;;;;1.80;1.10;;;9.70;1.00;;;;;;6272684;23;20445;-80
2023/01/05 09:43:52;;;;;;;0.90;0.80;;;9.70;1.00;;;;;;6270066;22;20448;-78
2023/01/05 09:46:23;;;;;;;1.67;1.10;;;9.60;1.00;;;;;;6261999;23;20360;-81
2023/01/05 09:48:55;;;;;;;3.10;1.00;;;9.60;1.00;;;;;;6260433;23;20365;-81
2023/01/05 09:51:22;;;;;;;2.63;1.10;;;9.60;1.00;;;;;;6259945;23;20468;-81
2023/01/05 09:53:49;;;;;;;2.43;1.20;;;9.70;99.90;;;;;;6258596;22;20433;-84
2023/01/05 09:56:26;;;;;;;2.33;1.50;;;9.60;99.90;;;;;;6259029;23;20417;-82
2023/01/05 09:59:02;;;;;;;3.90;1.20;;;9.60;99.90;;;;;;6258512;23;20461;-81
2023/01/05 10:01:33;;;;;;;1.57;1.17;;;9.70;10.00;;;;;;6259009;23;20456;-81
2023/01/05 10:04:05;;;;;;;1.40;1.30;;;9.60;1.00;;;;;;6259554;22;20402;-83
2023/01/05 10:06:36;;;;;;;3.77;1.10;;;9.60;99.90;;;;;;6263238;23;20790;-81
2023/01/05 10:09:05;;;;;;;2.73;1.07;;;9.60;1.00;;;;;;6257493;23;20417;-83
2023/01/05 10:14:30;;;;;;;2.87;1.33;;;9.60;1.00;;;;;;6256609;23;20343;-82
2023/01/05 10:16:57;;;;;;;2.00;1.23;;;9.50;99.90;;;;;;6266890;23;20432;-82
2023/01/05 10:19:26;;;;;;;2.70;1.47;;;9.50;1.00;;;;;;6260738;23;20400;-83
2023/01/05 10:22:02;;;;;;;2.70;1.20;;;9.90;99.90;;;;;;6258734;22;20437;-83
2023/01/05 10:24:41;;;;;;;6.70;1.67;;;9.60;1.00;;;;;;6262912;23;20397;-84
2023/01/05 10:27:17;;;;;;;2.50;0.97;;;9.60;99.90;;;;;;6261540;23;20406;-83
2023/01/05 10:29:46;;;;;;;4.83;1.57;;;9.60;1.00;;;;;;6263606;23;20878;-84
2023/01/05 10:32:26;;;;;;;2.93;1.30;;;9.60;1.00;;;;;;6261063;22;20433;-84
2023/01/05 10:34:58;;;;;;;1.50;0.80;;;9.60;1.00;;;;;;6262895;23;20726;-84
2023/01/05 10:37:48;;;;;;;3.97;1.30;;;9.60;99.90;;;;;;6262422;23;20476;-84
2023/01/05 10:40:27;;;;;;;4.47;1.53;;;9.60;1.00;;;;;;6250959;22;20416;-82
2023/01/05 10:43:08;;;;;;;8.80;1.87;;;9.60;99.90;;;;;;6272723;22;20421;-83
2023/01/05 10:45:36;;;;;;;6.03;1.60;;;9.60;99.90;;;;;;6273933;22;20356;-83
2023/01/05 10:48:11;;;;;;;1.90;1.63;;;9.60;1.00;;;;;;6272924;23;20376;-84
2023/01/05 10:50:41;;;;;;;3.63;1.80;;;9.50;99.90;;;;;;6273210;23;20389;-84
2023/01/05 10:53:11;;;;;;;4.67;1.67;;;9.50;1.00;;;;;;6271409;22;20432;-82
2023/01/05 10:55:54;;;;;;;2.63;1.30;;;9.50;1.00;;;;;;6266804;23;20382;-84
2023/01/05 10:58:23;;;;;;;2.37;1.20;;;9.20;1.00;;;;;;6264294;23;20484;-83
2023/01/05 11:00:52;;;;;;;3.80;1.60;;;9.50;1.00;;;;;;6264633;23;20411;-83
2023/01/05 11:03:21;;;;;;;3.80;1.50;;;9.60;1.00;;;;;;6270164;22;20496;-83
2023/01/05 11:05:49;;;;;;;3.50;1.30;;;9.60;1.00;;;;;;6267088;23;20498;-83
2023/01/05 11:08:19;;;;;;;3.80;1.30;;;9.60;1.00;;;;;;6263675;23;20429;-81
2023/01/05 11:10:53;;;;;;;4.50;1.70;;;9.80;1.00;;;;;;6264191;23;20439;-82
2023/01/05 11:13:31;;;;;;;1.40;1.10;;;9.60;99.90;;;;;;6265928;22;20429;-82
2023/01/05 11:16:05;;;;;;;3.93;1.40;;;9.60;99.90;;;;;;6263911;23;20382;-83
2023/01/05 11:18:36;;;;;;;3.70;1.40;;;9.70;99.90;;;;;;6264775;23;20401;-80
2023/01/05 11:21:09;;;;;;;4.33;1.43;;;9.70;1.00;;;;;;6263294;23;20428;-80
2023/01/05 11:23:38;;;;;;;2.50;1.20;;;9.70;99.90;;;;;;6267532;22;20516;-83
2023/01/05 11:26:22;;;;;;;4.80;2.30;;;9.60;99.90;;;;;;6272736;23;20361;-82
2023/01/05 11:29:14;;;;;;;3.73;1.20;;;9.60;1.00;;;;;;6273659;23;20385;-83
2023/01/05 11:31:48;;;;;;;1.57;1.00;;;9.60;1.00;;;;;;6235024;23;20952;-83
2023/01/05 11:34:29;;;;;;;3.33;1.67;;;9.30;1.00;;;;;;6271236;22;20368;-80
2023/01/05 11:36:58;;;;;;;3.50;1.50;;;9.50;99.90;;;;;;6274882;22;20420;-80
2023/01/05 11:39:30;;;;;;;4.67;1.50;;;9.80;30.40;;;;;;6272579;23;20402;-81
2023/01/05 11:42:16;;;;;;;3.77;1.57;;;9.50;99.90;;;;;;6271863;22;20429;-82
2023/01/05 11:44:46;;;;;;;4.77;1.97;;;9.50;1.00;;;;;;6261510;23;20700;-83
2023/01/05 11:47:21;;;;;;;3.23;1.53;;;9.70;1.00;;;;;;6261898;23;20424;-83
2023/01/05 11:49:49;;;;;;;2.30;1.60;;;9.50;99.90;;;;;;6262361;23;20417;-81
2023/01/05 11:52:27;;;;;;;1.43;1.20;;;9.50;99.90;;;;;;6262986;22;20430;-82
2023/01/05 11:54:54;;;;;;;2.83;1.27;;;9.60;1.00;;;;;;6262887;23;20382;-82
2023/01/05 11:57:22;;;;;;;3.03;1.57;;;9.50;1.00;;;;;;6261518;23;20380;-82
2023/01/05 11:59:50;;;;;;;1.70;1.20;;;9.50;1.00;;;;;;6261963;23;20390;-82
2023/01/05 12:02:45;;;;;;;2.17;1.50;;;9.30;1.00;;;;;;6261069;22;20451;-82
2023/01/05 12:05:30;;;;;;;3.10;1.33;;;9.40;1.00;;;;;;6259935;23;20445;-82
2023/01/05 12:08:08;;;;;;;4.20;1.13;;;9.40;1.00;;;;;;6260897;23;20361;-81
2023/01/05 12:10:57;;;;;;;5.90;1.77;;;9.30;1.00;;;;;;6261467;23;20364;-83
2023/01/05 12:13:46;;;;;;;5.40;1.50;;;9.30;1.00;;;;;;6238018;22;20467;-83
2023/01/05 12:16:31;;;;;;;3.00;1.73;;;9.40;1.00;;;;;;6261853;23;20414;-82
2023/01/05 12:19:31;;;;;;;1.77;1.67;;;9.50;1.00;;;;;;6264743;23;20473;-82
2023/01/05 12:22:24;;;;;;;2.40;1.47;;;9.40;1.00;;;;;;6199128;22;20445;-82
2023/01/05 12:25:04;;;;;;;2.33;1.80;;;9.50;1.00;;;;;;6247515;23;20488;-82
2023/01/05 12:27:49;;;;;;;1.77;1.20;;;9.60;1.00;;;;;;6260924;23;20389;-83
2023/01/05 12:30:26;;;;;;;2.00;1.30;;;9.60;1.00;;;;;;6260025;23;20424;-83
2023/01/05 12:33:14;;;;;;;2.40;1.33;;;9.50;1.00;;;;;;6260388;22;20429;-82
2023/01/05 12:36:08;;;;;;;3.43;1.47;;;9.50;99.90;;;;;;6267778;22;20394;-82
2023/01/05 12:38:40;;;;;;;8.17;2.30;;;9.40;99.90;;;;;;6272875;22;20457;-82
2023/01/05 12:41:27;;;;;;;2.87;1.20;;;9.40;1.00;;;;;;6261348;23;20390;-82
2023/01/05 12:44:08;;;;;;;3.50;1.50;;;9.50;1.00;;;;;;6260768;22;20493;-83
2023/01/05 12:46:48;;;;;;;1.87;1.10;;;9.50;1.00;;;;;;6265323;23;20454;-82
2023/01/05 12:49:22;;;;;;;2.93;1.50;;;9.50;1.00;;;;;;6270108;23;20417;-81
2023/01/05 12:51:55;;;;;;;9.40;1.47;;;9.50;1.00;;;;;;6266631;22;20384;-82
2023/01/05 12:54:29;;;;;;;3.30;1.17;;;9.30;99.90;;;;;;6262880;23;20409;-82
2023/01/05 12:57:03;;;;;;;3.20;1.20;;;9.40;99.90;;;;;;6260431;23;20360;-83
2023/01/05 12:59:36;;;;;;;1.30;1.20;;;9.40;99.90;;;;;;6260237;23;20375;-81
2023/01/05 13:02:19;;;;;;;2.80;1.10;;;9.60;1.00;;;;;;6260308;22;20421;-80
2023/01/05 13:04:52;;;;;;;2.50;1.03;;;9.50;99.90;;;;;;6261402;23;20388;-81
2023/01/05 13:07:26;;;;;;;3.37;1.87;;;9.60;99.90;;;;;;6263133;23;20465;-79
2023/01/05 13:09:58;;;;;;;3.57;1.37;;;9.70;99.90;;;;;;6259962;23;20433;-81
2023/01/05 13:12:26;;;;;;;1.50;1.23;;;9.70;99.90;;;;;;6261589;22;20480;-83
2023/01/05 13:15:06;;;;;;;4.03;2.20;;;9.60;99.90;;;;;;6262150;23;20433;-81
2023/01/05 13:17:35;;;;;;;2.63;1.30;;;9.70;99.90;;;;;;6260312;23;20838;-82
2023/01/05 13:20:05;;;;;;;6.10;2.20;;;9.70;99.90;;;;;;6261879;23;20465;-80
2023/01/05 13:22:35;;;;;;;2.90;1.47;;;9.70;99.90;;;;;;6263116;22;20445;-82
2023/01/05 13:25:11;;;;;;;1.40;1.30;;;9.60;99.90;;;;;;6260584;23;20364;-83
2023/01/05 13:27:40;;;;;;;2.73;1.30;;;9.50;99.90;;;;;;6269016;23;20360;-81
2023/01/05 13:30:12;;;;;;;5.60;1.37;;;9.50;99.90;;;;;;6271689;23;20402;-82
2023/01/05 13:32:58;;;;;;;3.07;1.33;;;9.50;99.90;;;;;;6259501;22;20440;-80
2023/01/05 13:35:34;;;;;;;5.70;1.40;;;9.40;99.90;;;;;;6256107;23;20393;-81
2023/01/05 13:38:30;;;;;;;1.37;1.27;;;9.40;99.90;;;;;;6257477;23;20423;-81
2023/01/05 13:41:10;;;;;;;1.83;1.53;;;9.40;99.90;;;;;;6245441;23;20489;-81
2023/01/05 13:43:57;;;;;;;3.73;1.27;;;9.40;99.90;;;;;;6256931;22;20420;-81
2023/01/05 13:46:37;;;;;;;4.80;1.93;;;9.40;99.90;;;;;;6257594;23;20390;-81
2023/01/05 13:49:46;;;;;;;3.60;1.50;;;9.30;99.90;;;;;;6257916;23;20472;-82
2023/01/05 13:52:22;;;;;;;3.23;1.10;;;9.20;99.90;;;;;;6259426;22;20423;-82
2023/01/05 13:54:52;;;;;;;2.50;1.43;;;9.20;99.90;;;;;;6259518;23;20383;-81
2023/01/05 13:57:22;;;;;;;4.63;1.60;;;9.10;99.90;;;;;;6258692;23;20390;-83
2023/01/05 13:59:55;;;;;;;1.75;1.55;;;9.20;1.00;;;;;;6259541;23;20361;-84